sensor_id;sensor_type;location;lat;lon;timestamp;pressure;altitude;pressure_sealevel;temperature;humidity
24302;BME280;12421;49.732;20.078;2022-07-31T00:06:32;96207.03;;;19.18;80.75
24302;BME280;12421;49.732;20.078;2022-07-31T00:28:09;96202.70;;;19.00;80.65
24302;BME280;12421;49.732;20.078;2022-07-31T00:38:11;96200.03;;;18.85;80.73
24302;BME280;12421;49.732;20.078;2022-07-31T00:48:22;96212.33;;;18.87;80.92
24302;BME280;12421;49.732;20.078;2022-07-31T00:58:24;96204.73;;;18.88;81.12
24302;BME280;12421;49.732;20.078;2022-07-31T01:08:30;96207.02;;;18.79;81.09
24302;BME280;12421;49.732;20.078;2022-07-31T01:18:35;96205.39;;;18.76;80.98
24302;BME280;12421;49.732;20.078;2022-07-31T01:39:02;96199.37;;;18.64;81.08
24302;BME280;12421;49.732;20.078;2022-07-31T01:49:08;96206.03;;;18.64;81.17
24302;BME280;12421;49.732;20.078;2022-07-31T01:59:13;96196.75;;;18.56;81.24
24302;BME280;12421;49.732;20.078;2022-07-31T02:09:19;96192.97;;;18.51;81.30
24302;BME280;12421;49.732;20.078;2022-07-31T02:19:23;96182.62;;;18.37;80.65
24302;BME280;12421;49.732;20.078;2022-07-31T02:29:27;96188.98;;;18.34;81.32
24302;BME280;12421;49.732;20.078;2022-07-31T02:39:33;96184.82;;;18.37;81.59
24302;BME280;12421;49.732;20.078;2022-07-31T02:49:37;96168.77;;;18.39;81.67
24302;BME280;12421;49.732;20.078;2022-07-31T02:59:39;96161.65;;;18.39;80.96
24302;BME280;12421;49.732;20.078;2022-07-31T03:09:42;96152.23;;;18.41;80.82
24302;BME280;12421;49.732;20.078;2022-07-31T03:20:04;96154.90;;;18.41;80.64
24302;BME280;12421;49.732;20.078;2022-07-31T03:30:13;96149.72;;;18.46;80.51
24302;BME280;12421;49.732;20.078;2022-07-31T03:40:14;96142.02;;;18.49;80.63
24302;BME280;12421;49.732;20.078;2022-07-31T03:50:16;96144.59;;;18.50;80.25
24302;BME280;12421;49.732;20.078;2022-07-31T04:00:20;96144.25;;;18.56;80.40
24302;BME280;12421;49.732;20.078;2022-07-31T04:10:24;96153.83;;;18.60;80.51
24302;BME280;12421;49.732;20.078;2022-07-31T04:20:26;96148.95;;;18.60;80.55
24302;BME280;12421;49.732;20.078;2022-07-31T04:30:28;96151.95;;;18.62;80.23
24302;BME280;12421;49.732;20.078;2022-07-31T04:40:31;96153.48;;;18.66;80.59
24302;BME280;12421;49.732;20.078;2022-07-31T04:50:33;96162.70;;;18.76;80.74
24302;BME280;12421;49.732;20.078;2022-07-31T05:00:36;96153.81;;;18.84;80.31
24302;BME280;12421;49.732;20.078;2022-07-31T05:10:39;96152.39;;;18.86;79.60
24302;BME280;12421;49.732;20.078;2022-07-31T05:43:01;96196.53;;;18.26;79.03
24302;BME280;12421;49.732;20.078;2022-07-31T05:53:17;96209.14;;;18.31;78.89
24302;BME280;12421;49.732;20.078;2022-07-31T06:03:23;96201.48;;;18.25;79.07
24302;BME280;12421;49.732;20.078;2022-07-31T06:13:29;96206.64;;;18.28;78.75
24302;BME280;12421;49.732;20.078;2022-07-31T06:23:35;96215.81;;;18.23;78.93
24302;BME280;12421;49.732;20.078;2022-07-31T06:33:43;96226.69;;;18.35;79.11
24302;BME280;12421;49.732;20.078;2022-07-31T06:43:45;96239.97;;;18.45;78.20
24302;BME280;12421;49.732;20.078;2022-07-31T06:54:07;96250.95;;;18.48;78.29
24302;BME280;12421;49.732;20.078;2022-07-31T07:04:11;96260.01;;;18.35;77.77
24302;BME280;12421;49.732;20.078;2022-07-31T07:14:14;96263.33;;;18.32;77.53
24302;BME280;12421;49.732;20.078;2022-07-31T07:24:17;96262.88;;;18.41;78.21
24302;BME280;12421;49.732;20.078;2022-07-31T07:34:27;96269.21;;;18.55;78.11
24302;BME280;12421;49.732;20.078;2022-07-31T07:44:36;96277.92;;;18.50;77.03
24302;BME280;12421;49.732;20.078;2022-07-31T07:54:46;96282.29;;;18.34;76.87
24302;BME280;12421;49.732;20.078;2022-07-31T08:05:00;96296.23;;;18.22;76.58
24302;BME280;12421;49.732;20.078;2022-07-31T08:15:04;96316.22;;;18.05;77.16
24302;BME280;12421;49.732;20.078;2022-07-31T08:25:20;96328.92;;;18.09;77.10
24302;BME280;12421;49.732;20.078;2022-07-31T08:35:22;96347.50;;;18.10;77.28
24302;BME280;12421;49.732;20.078;2022-07-31T08:45:25;96354.31;;;18.07;76.41
24302;BME280;12421;49.732;20.078;2022-07-31T08:55:35;96355.70;;;17.97;76.39
24302;BME280;12421;49.732;20.078;2022-07-31T09:05:39;96352.20;;;17.86;77.02
24302;BME280;12421;49.732;20.078;2022-07-31T09:15:41;96359.78;;;17.77;78.38
24302;BME280;12421;49.732;20.078;2022-07-31T09:26:00;96361.30;;;17.82;78.12
24302;BME280;12421;49.732;20.078;2022-07-31T09:36:04;96364.23;;;17.68;77.98
24302;BME280;12421;49.732;20.078;2022-07-31T09:46:08;96369.17;;;17.67;77.95
24302;BME280;12421;49.732;20.078;2022-07-31T09:56:11;96373.22;;;17.37;76.79
24302;BME280;12421;49.732;20.078;2022-07-31T10:06:15;96391.72;;;17.30;77.73
24302;BME280;12421;49.732;20.078;2022-07-31T10:16:19;96396.20;;;17.29;78.59
24302;BME280;12421;49.732;20.078;2022-07-31T10:26:25;96397.53;;;17.29;78.30
24302;BME280;12421;49.732;20.078;2022-07-31T10:36:33;96399.69;;;17.40;78.68
24302;BME280;12421;49.732;20.078;2022-07-31T10:46:52;96408.36;;;17.45;77.71
24302;BME280;12421;49.732;20.078;2022-07-31T10:56:58;96406.05;;;17.47;78.15
24302;BME280;12421;49.732;20.078;2022-07-31T11:07:18;96411.68;;;17.50;78.44
24302;BME280;12421;49.732;20.078;2022-07-31T11:17:41;96424.17;;;17.58;78.15
24302;BME280;12421;49.732;20.078;2022-07-31T11:28:14;96412.96;;;17.70;77.81
24302;BME280;12421;49.732;20.078;2022-07-31T11:38:28;96424.14;;;17.68;77.73
24302;BME280;12421;49.732;20.078;2022-07-31T11:48:37;96428.27;;;17.75;78.39
24302;BME280;12421;49.732;20.078;2022-07-31T11:58:48;96432.03;;;17.79;78.52
24302;BME280;12421;49.732;20.078;2022-07-31T12:08:52;96427.36;;;17.84;77.23
24302;BME280;12421;49.732;20.078;2022-07-31T12:18:56;96433.45;;;18.05;77.33
24302;BME280;12421;49.732;20.078;2022-07-31T12:29:05;96443.02;;;18.01;76.42
24302;BME280;12421;49.732;20.078;2022-07-31T12:39:10;96441.19;;;18.01;76.69
24302;BME280;12421;49.732;20.078;2022-07-31T12:49:12;96448.34;;;18.09;76.88
24302;BME280;12421;49.732;20.078;2022-07-31T12:59:15;96448.71;;;18.39;76.58
24302;BME280;12421;49.732;20.078;2022-07-31T13:09:18;96453.16;;;18.65;76.31
24302;BME280;12421;49.732;20.078;2022-07-31T13:19:24;96459.03;;;18.63;76.01
24302;BME280;12421;49.732;20.078;2022-07-31T13:29:26;96457.76;;;18.53;75.98
24302;BME280;12421;49.732;20.078;2022-07-31T13:39:54;96463.08;;;18.26;76.55
24302;BME280;12421;49.732;20.078;2022-07-31T13:49:56;96461.48;;;18.22;76.87
24302;BME280;12421;49.732;20.078;2022-07-31T13:59:58;96466.13;;;18.19;77.32
24302;BME280;12421;49.732;20.078;2022-07-31T14:10:00;96470.73;;;18.15;77.17
24302;BME280;12421;49.732;20.078;2022-07-31T14:20:02;96466.20;;;18.17;77.02
24302;BME280;12421;49.732;20.078;2022-07-31T14:30:09;96460.06;;;17.96;77.13
24302;BME280;12421;49.732;20.078;2022-07-31T14:40:12;96463.91;;;17.91;77.63
24302;BME280;12421;49.732;20.078;2022-07-31T14:50:18;96470.17;;;17.80;77.91
24302;BME280;12421;49.732;20.078;2022-07-31T15:00:21;96472.89;;;17.70;78.41
24302;BME280;12421;49.732;20.078;2022-07-31T15:10:23;96496.05;;;17.68;79.48
24302;BME280;12421;49.732;20.078;2022-07-31T15:20:25;96495.66;;;17.67;79.45
24302;BME280;12421;49.732;20.078;2022-07-31T15:30:28;96495.37;;;17.73;80.03
24302;BME280;12421;49.732;20.078;2022-07-31T15:40:30;96497.52;;;17.75;79.72
24302;BME280;12421;49.732;20.078;2022-07-31T15:50:35;96498.84;;;17.75;79.83
24302;BME280;12421;49.732;20.078;2022-07-31T16:00:37;96493.53;;;17.65;80.93
24302;BME280;12421;49.732;20.078;2022-07-31T16:10:39;96498.77;;;17.76;81.49
24302;BME280;12421;49.732;20.078;2022-07-31T16:20:42;96494.34;;;17.57;81.08
24302;BME280;12421;49.732;20.078;2022-07-31T16:30:51;96500.63;;;17.46;81.56
24302;BME280;12421;49.732;20.078;2022-07-31T16:40:55;96500.91;;;17.38;81.53
24302;BME280;12421;49.732;20.078;2022-07-31T17:02:03;96505.17;;;17.22;82.54
24302;BME280;12421;49.732;20.078;2022-07-31T17:34:55;96524.13;;;17.05;83.32
24302;BME280;12421;49.732;20.078;2022-07-31T17:44:58;96542.34;;;16.94;83.62
24302;BME280;12421;49.732;20.078;2022-07-31T17:55:05;96554.88;;;16.80;83.86
24302;BME280;12421;49.732;20.078;2022-07-31T18:05:08;96554.30;;;16.84;84.61
24302;BME280;12421;49.732;20.078;2022-07-31T18:15:11;96553.51;;;16.92;84.62
24302;BME280;12421;49.732;20.078;2022-07-31T18:25:15;96543.00;;;16.89;84.87
24302;BME280;12421;49.732;20.078;2022-07-31T18:35:17;96542.48;;;16.91;84.98
24302;BME280;12421;49.732;20.078;2022-07-31T18:45:20;96547.73;;;16.92;85.36
24302;BME280;12421;49.732;20.078;2022-07-31T18:55:24;96561.52;;;17.02;85.26
24302;BME280;12421;49.732;20.078;2022-07-31T19:05:26;96561.53;;;17.12;85.26
24302;BME280;12421;49.732;20.078;2022-07-31T19:15:29;96570.56;;;17.08;84.90
24302;BME280;12421;49.732;20.078;2022-07-31T19:25:32;96576.76;;;17.08;85.47
24302;BME280;12421;49.732;20.078;2022-07-31T19:35:36;96574.45;;;16.99;84.99
24302;BME280;12421;49.732;20.078;2022-07-31T19:45:38;96585.78;;;17.04;85.65
24302;BME280;12421;49.732;20.078;2022-07-31T19:55:40;96588.38;;;17.06;85.71
24302;BME280;12421;49.732;20.078;2022-07-31T20:05:43;96580.68;;;17.10;86.02
24302;BME280;12421;49.732;20.078;2022-07-31T20:15:47;96576.49;;;17.14;85.66
24302;BME280;12421;49.732;20.078;2022-07-31T20:25:55;96582.42;;;17.21;85.38
24302;BME280;12421;49.732;20.078;2022-07-31T20:36:21;96577.63;;;17.19;85.50
24302;BME280;12421;49.732;20.078;2022-07-31T20:46:29;96585.89;;;17.23;85.69
24302;BME280;12421;49.732;20.078;2022-07-31T20:56:33;96579.19;;;17.34;85.79
24302;BME280;12421;49.732;20.078;2022-07-31T21:06:35;96589.11;;;17.41;85.45
24302;BME280;12421;49.732;20.078;2022-07-31T21:16:44;96583.22;;;17.43;85.15
24302;BME280;12421;49.732;20.078;2022-07-31T21:26:52;96580.49;;;17.46;84.86
24302;BME280;12421;49.732;20.078;2022-07-31T21:37:08;96580.56;;;17.43;85.19
24302;BME280;12421;49.732;20.078;2022-07-31T21:47:12;96590.72;;;17.45;84.69
24302;BME280;12421;49.732;20.078;2022-07-31T21:57:15;96596.08;;;17.43;84.76
24302;BME280;12421;49.732;20.078;2022-07-31T22:07:17;96596.19;;;17.52;84.59
24302;BME280;12421;49.732;20.078;2022-07-31T22:17:36;96600.19;;;17.52;84.90
24302;BME280;12421;49.732;20.078;2022-07-31T22:27:39;96601.97;;;17.51;84.70
24302;BME280;12421;49.732;20.078;2022-07-31T22:37:53;96605.90;;;17.53;84.67
24302;BME280;12421;49.732;20.078;2022-07-31T22:47:56;96605.09;;;17.51;84.75
24302;BME280;12421;49.732;20.078;2022-07-31T22:57:58;96608.84;;;17.57;84.32
24302;BME280;12421;49.732;20.078;2022-07-31T23:08:00;96612.56;;;17.63;84.47
24302;BME280;12421;49.732;20.078;2022-07-31T23:18:02;96602.51;;;17.59;84.22
24302;BME280;12421;49.732;20.078;2022-07-31T23:28:05;96598.97;;;17.59;83.96
24302;BME280;12421;49.732;20.078;2022-07-31T23:38:07;96599.52;;;17.57;83.96
24302;BME280;12421;49.732;20.078;2022-07-31T23:48:09;96600.30;;;17.59;83.84
24302;BME280;12421;49.732;20.078;2022-07-31T23:58:11;96605.17;;;17.59;83.56
